createdAt,value
2023-04-15T00:01:37.257Z,100902.97
2023-04-15T00:04:04.728Z,100908.03
2023-04-15T00:06:31.333Z,100912.28
2023-04-15T00:08:57.906Z,100920.06
2023-04-15T00:11:24.533Z,100908.03
2023-04-15T00:13:51.167Z,100916.72
2023-04-15T00:16:17.794Z,100921.03
2023-04-15T00:18:44.276Z,100911.53
2023-04-15T00:21:10.708Z,100908.22
2023-04-15T00:23:37.132Z,100914.97
2023-04-15T00:26:03.531Z,100911.41
2023-04-15T00:28:31.008Z,100907.88
2023-04-15T00:30:57.670Z,100907.88
2023-04-15T00:33:24.096Z,100905.44
2023-04-15T00:35:50.913Z,100913.16
2023-04-15T00:38:17.716Z,100905.38
2023-04-15T00:40:44.193Z,100912.13
2023-04-15T00:43:10.630Z,100912.91
2023-04-15T00:45:37.277Z,100913.81
2023-04-15T00:48:05.029Z,100915.50
2023-04-15T00:50:31.445Z,100913.94
2023-04-15T00:52:57.796Z,100918.34
2023-04-15T00:55:24.234Z,100920.84
2023-04-15T00:57:50.756Z,100925.38
2023-04-15T01:00:17.093Z,100923.03
2023-04-15T01:02:43.748Z,100919.81
2023-04-15T01:05:10.310Z,100925.25
2023-04-15T01:07:36.873Z,100919.31
2023-04-15T01:10:04.515Z,100914.41
2023-04-15T01:12:33.049Z,100922.41
2023-04-15T01:15:00.226Z,100919.13
2023-04-15T01:17:26.774Z,100921.88
2023-04-15T01:19:55.481Z,100920.13
2023-04-15T01:22:22.393Z,100920.88
2023-04-15T01:25:01.872Z,100919.06
2023-04-15T01:27:28.305Z,100914.00
2023-04-15T01:29:54.740Z,100923.66
2023-04-15T01:32:21.371Z,100915.13
2023-04-15T01:34:47.784Z,100912.72
2023-04-15T01:37:14.269Z,100922.41
2023-04-15T01:39:41.090Z,100919.91
2023-04-15T01:42:07.552Z,100914.88
2023-04-15T01:44:33.965Z,100925.31
2023-04-15T01:47:00.653Z,100923.66
2023-04-15T01:49:27.598Z,100923.66
2023-04-15T01:51:54.233Z,100919.31
2023-04-15T01:54:20.674Z,100921.88
2023-04-15T01:56:47.261Z,100921.75
2023-04-15T01:59:13.862Z,100923.34
2023-04-15T02:01:40.932Z,100924.22
2023-04-15T02:04:08.135Z,100925.72
2023-04-15T02:06:34.689Z,100918.78
2023-04-15T02:09:01.338Z,100931.63
2023-04-15T02:11:28.197Z,100928.22
2023-04-15T02:13:54.828Z,100925.66
2023-04-15T02:16:22.000Z,100929.22
2023-04-15T02:18:48.574Z,100936.13
2023-04-15T02:21:15.048Z,100933.44
2023-04-15T02:23:41.681Z,100930.06
2023-04-15T02:26:08.219Z,100940.47
2023-04-15T02:28:34.716Z,100942.34
2023-04-15T02:31:02.226Z,100941.59
2023-04-15T02:33:28.626Z,100939.84
2023-04-15T02:35:55.028Z,100949.38
2023-04-15T02:38:21.465Z,100947.75
2023-04-15T02:40:49.649Z,100957.31
2023-04-15T02:43:17.215Z,100960.78
2023-04-15T02:45:44.109Z,100963.38
2023-04-15T02:48:10.977Z,100962.69
2023-04-15T02:50:39.885Z,100955.09
2023-04-15T02:53:07.246Z,100961.09
2023-04-15T02:55:33.668Z,100966.25
2023-04-15T02:58:01.078Z,100968.03
2023-04-15T03:00:28.285Z,100968.91
2023-04-15T03:02:59.458Z,100971.47
2023-04-15T03:05:26.208Z,100962.91
2023-04-15T03:07:53.065Z,100971.56
2023-04-15T03:10:20.141Z,100971.63
2023-04-15T03:12:46.837Z,100979.41
2023-04-15T03:15:13.675Z,100975.19
2023-04-15T03:17:40.260Z,100976.06
2023-04-15T03:20:07.264Z,100982.16
2023-04-15T03:22:33.845Z,100978.69
2023-04-15T03:25:00.400Z,100980.56
2023-04-15T03:27:26.790Z,100983.28
2023-04-15T03:29:53.209Z,100983.41
2023-04-15T03:32:19.723Z,100988.69
2023-04-15T03:34:46.213Z,100981.72
2023-04-15T03:37:12.593Z,100983.41
2023-04-15T03:39:39.316Z,100988.53
2023-04-15T03:42:06.051Z,100987.81
2023-04-15T03:44:32.804Z,100994.06
2023-04-15T03:46:59.196Z,101003.47
2023-04-15T03:49:25.604Z,101004.31
2023-04-15T03:51:52.188Z,101012.97
2023-04-15T03:54:18.598Z,101010.50
2023-04-15T03:56:44.940Z,101014.84
2023-04-15T03:59:11.459Z,101008.00
2023-04-15T04:01:37.897Z,101019.31
2023-04-15T04:04:04.441Z,101015.97
2023-04-15T04:06:31.084Z,101018.59
2023-04-15T04:08:57.445Z,101026.31
2023-04-15T04:11:23.863Z,101034.22
2023-04-15T04:13:50.232Z,101040.28
2023-04-15T04:16:17.305Z,101028.25
2023-04-15T04:18:43.817Z,101040.25
2023-04-15T04:21:10.768Z,101041.19
2023-04-15T04:23:37.285Z,101044.00
2023-04-15T04:26:03.667Z,101041.59
2023-04-15T04:28:30.163Z,101046.88
2023-04-15T04:30:56.682Z,101046.16
2023-04-15T04:33:23.158Z,101053.19
2023-04-15T04:35:49.577Z,101059.34
2023-04-15T04:38:15.929Z,101053.44
2023-04-15T04:40:42.300Z,101066.38
2023-04-15T04:43:09.406Z,101074.09
2023-04-15T04:45:36.267Z,101069.69
2023-04-15T04:48:06.574Z,101081.72
2023-04-15T04:50:33.284Z,101088.69
2023-04-15T04:52:59.916Z,101093.22
2023-04-15T04:55:27.050Z,101096.03
2023-04-15T04:57:53.454Z,101093.69
2023-04-15T05:00:20.298Z,101098.97
2023-04-15T05:02:46.857Z,101099.91
2023-04-15T05:05:13.375Z,101099.94
2023-04-15T05:07:39.885Z,101114.59
2023-04-15T05:10:06.930Z,101110.13
2023-04-15T05:12:33.389Z,101118.56
2023-04-15T05:14:59.845Z,101117.59
2023-04-15T05:17:26.288Z,101125.31
2023-04-15T05:19:53.784Z,101125.28
2023-04-15T05:22:20.316Z,101132.97
2023-04-15T05:24:46.700Z,101126.88
2023-04-15T05:27:13.096Z,101131.91
2023-04-15T05:29:39.501Z,101140.47
2023-04-15T05:32:06.553Z,101144.72
2023-04-15T05:34:32.901Z,101148.75
2023-04-15T05:36:59.279Z,101152.97
2023-04-15T05:39:25.700Z,101158.78
2023-04-15T05:41:52.190Z,101158.75
2023-04-15T05:44:18.796Z,101166.41
2023-04-15T05:46:45.232Z,101167.13
2023-04-15T05:49:12.022Z,101169.63
2023-04-15T05:51:38.469Z,101171.31
2023-04-15T05:54:04.896Z,101175.75
2023-04-15T05:56:31.623Z,101183.47
2023-04-15T05:58:57.982Z,101181.69
2023-04-15T06:01:25.310Z,101184.16
2023-04-15T06:03:51.926Z,101189.28
2023-04-15T06:06:18.754Z,101185.81
2023-04-15T06:08:45.124Z,101187.47
2023-04-15T06:11:11.643Z,101196.81
2023-04-15T06:13:38.037Z,101206.25
2023-04-15T06:16:04.764Z,101215.53
2023-04-15T06:18:31.237Z,101211.94
2023-04-15T06:20:57.837Z,101220.34
2023-04-15T06:23:25.286Z,101222.75
2023-04-15T06:25:52.791Z,101223.34
2023-04-15T06:28:19.239Z,101229.97
2023-04-15T06:30:45.723Z,101227.09
2023-04-15T06:33:12.471Z,101227.69
2023-04-15T06:35:39.332Z,101238.56
2023-04-15T06:38:06.186Z,101239.97
2023-04-15T06:40:32.622Z,101240.41
2023-04-15T06:42:59.110Z,101251.38
2023-04-15T06:45:25.607Z,101252.09
2023-04-15T06:47:52.262Z,101257.81
2023-04-15T06:50:18.719Z,101255.84
2023-04-15T06:52:45.125Z,101263.41
2023-04-15T06:55:11.588Z,101269.25
2023-04-15T06:57:37.986Z,101273.19
2023-04-15T07:00:05.686Z,101282.13
2023-04-15T07:02:32.245Z,101276.22
2023-04-15T07:04:58.817Z,101285.16
2023-04-15T07:07:25.609Z,101287.13
2023-04-15T07:09:53.716Z,101292.75
2023-04-15T07:12:20.793Z,101298.19
2023-04-15T07:14:47.438Z,101302.34
2023-04-15T07:17:13.922Z,101305.59
2023-04-15T07:19:40.552Z,101309.69
2023-04-15T07:22:07.709Z,101304.28
2023-04-15T07:24:34.170Z,101312.09
2023-04-15T07:27:01.142Z,101313.06
2023-04-15T07:29:27.924Z,101323.16
2023-04-15T07:31:54.376Z,101315.97
2023-04-15T07:34:20.958Z,101321.63
2023-04-15T07:36:50.504Z,101324.66
2023-04-15T07:39:17.155Z,101327.44
2023-04-15T07:41:43.733Z,101324.94
2023-04-15T07:44:10.413Z,101332.63
2023-04-15T07:46:38.354Z,101326.84
2023-04-15T07:49:05.140Z,101326.16
2023-04-15T07:51:32.187Z,101332.50
2023-04-15T07:53:58.855Z,101331.97
2023-04-15T07:56:26.380Z,101340.19
2023-04-15T07:58:53.136Z,101342.09
2023-04-15T08:01:19.588Z,101346.25
2023-04-15T08:03:46.322Z,101347.59
2023-04-15T08:06:13.046Z,101352.88
2023-04-15T08:08:39.493Z,101349.56
2023-04-15T08:11:05.955Z,101355.03
2023-04-15T08:13:32.333Z,101361.81
2023-04-15T08:16:23.450Z,101368.22
2023-04-15T08:18:52.106Z,101368.91
2023-04-15T08:21:19.685Z,101374.50
2023-04-15T08:23:47.495Z,101369.56
2023-04-15T08:26:14.259Z,101364.66
2023-04-15T08:28:41.814Z,101372.78
2023-04-15T08:31:09.637Z,101374.91
2023-04-15T08:33:36.267Z,101373.56
2023-04-15T08:36:03.239Z,101376.97
2023-04-15T08:38:29.630Z,101375.78
2023-04-15T08:40:58.338Z,101390.75
2023-04-15T08:43:28.599Z,101385.22
2023-04-15T08:45:55.746Z,101395.34
2023-04-15T08:48:24.516Z,101401.63
2023-04-15T08:50:51.826Z,101405.06
2023-04-15T08:53:18.236Z,101413.50
2023-04-15T08:55:46.327Z,101411.78
2023-04-15T08:58:14.220Z,101420.31
2023-04-15T09:00:41.219Z,101425.69
2023-04-15T09:03:09.273Z,101423.34
2023-04-15T09:05:37.249Z,101429.66
2023-04-15T09:08:05.286Z,101435.66
2023-04-15T09:10:33.661Z,101433.63
2023-04-15T09:13:02.850Z,101443.25
2023-04-15T09:15:30.389Z,101444.09
2023-04-15T09:17:57.862Z,101450.00
2023-04-15T09:20:24.578Z,101449.34
2023-04-15T09:22:52.383Z,101452.28
2023-04-15T09:25:21.836Z,101461.81
2023-04-15T09:27:53.128Z,101464.63
2023-04-15T09:30:19.573Z,101468.19
2023-04-15T09:32:53.918Z,101464.53
2023-04-15T09:35:22.318Z,101469.88
2023-04-15T09:37:53.221Z,101471.97
2023-04-15T09:40:33.861Z,101475.81
2023-04-15T09:43:01.949Z,101477.44
2023-04-15T09:45:29.673Z,101469.06
2023-04-15T09:47:59.145Z,101473.50
2023-04-15T09:50:29.518Z,101483.03
2023-04-15T09:52:56.351Z,101482.34
2023-04-15T09:55:23.112Z,101476.88
2023-04-15T09:57:49.598Z,101484.78
2023-04-15T10:00:16.349Z,101489.41
2023-04-15T10:02:43.322Z,101487.34
2023-04-15T10:05:18.034Z,101492.25
2023-04-15T10:07:45.796Z,101488.78
2023-04-15T10:10:13.405Z,101497.16
2023-04-15T10:12:42.054Z,101499.06
2023-04-15T10:15:14.873Z,101495.19
2023-04-15T10:17:44.388Z,101494.34
2023-04-15T10:20:12.903Z,101502.88
2023-04-15T10:22:41.188Z,101505.31
2023-04-15T10:25:08.942Z,101507.66
2023-04-15T10:27:36.720Z,101499.41
2023-04-15T10:30:03.777Z,101497.91
2023-04-15T10:32:30.724Z,101497.06
2023-04-15T10:34:58.125Z,101490.97
2023-04-15T10:37:38.201Z,101507.66
2023-04-15T10:40:24.455Z,101502.41
2023-04-15T10:42:51.265Z,101505.16
2023-04-15T10:45:19.284Z,101513.66
2023-04-15T10:47:45.918Z,101514.69
2023-04-15T10:50:12.621Z,101512.09
2023-04-15T10:52:42.554Z,101531.19
2023-04-15T10:55:22.538Z,101522.97
2023-04-15T10:57:58.636Z,101529.97
2023-04-15T11:00:26.837Z,101530.31
2023-04-15T11:03:15.203Z,101536.34
2023-04-15T11:05:41.746Z,101535.72
2023-04-15T11:08:09.202Z,101538.88
2023-04-15T11:10:35.801Z,101539.38
2023-04-15T11:13:16.542Z,101537.72
2023-04-15T11:15:47.934Z,101540.84
2023-04-15T11:18:28.676Z,101540.22
2023-04-15T11:20:59.950Z,101540.59
2023-04-15T11:23:32.108Z,101546.63
2023-04-15T11:26:00.014Z,101550.94
2023-04-15T11:28:28.122Z,101553.38
2023-04-15T11:30:55.731Z,101545.81
2023-04-15T11:33:23.717Z,101548.44
2023-04-15T11:35:51.959Z,101547.44
2023-04-15T11:38:18.906Z,101554.44
2023-04-15T11:40:47.237Z,101544.53
2023-04-15T11:43:16.571Z,101548.03
2023-04-15T11:45:51.481Z,101555.88
2023-04-15T11:48:18.676Z,101553.22
2023-04-15T11:50:45.556Z,101556.97
2023-04-15T11:53:13.621Z,101565.16
2023-04-15T11:55:44.694Z,101546.94
2023-04-15T11:58:18.652Z,101572.91
2023-04-15T12:00:57.062Z,101563.88
2023-04-15T12:03:28.330Z,101575.91
2023-04-15T12:06:11.546Z,101580.75
2023-04-15T12:08:58.337Z,101578.13
2023-04-15T12:11:28.526Z,101586.75
2023-04-15T12:14:05.696Z,101588.50
2023-04-15T12:16:48.266Z,101590.41
2023-04-15T12:19:36.002Z,101590.75
2023-04-15T12:22:05.276Z,101598.50
2023-04-15T12:24:33.563Z,101598.22
2023-04-15T12:27:08.300Z,101607.06
2023-04-15T12:29:36.545Z,101608.75
2023-04-15T12:32:13.834Z,101614.41
2023-04-15T12:34:49.548Z,101616.84
2023-04-15T12:37:16.279Z,101616.19
2023-04-15T12:39:44.792Z,101621.06
2023-04-15T12:42:12.197Z,101626.19
2023-04-15T12:44:39.856Z,101626.84
2023-04-15T12:47:07.744Z,101632.25
2023-04-15T12:49:34.588Z,101628.31
2023-04-15T12:52:02.417Z,101635.31
2023-04-15T12:54:30.204Z,101649.63
2023-04-15T12:56:57.926Z,101651.94
2023-04-15T12:59:24.532Z,101642.44
2023-04-15T13:01:52.429Z,101650.28
2023-04-15T13:04:20.550Z,101651.19
2023-04-15T13:06:47.280Z,101653.81
2023-04-15T13:09:13.917Z,101657.19
2023-04-15T13:11:40.775Z,101660.66
2023-04-15T13:14:08.879Z,101655.38
2023-04-15T13:16:36.003Z,101670.88
2023-04-15T13:19:03.499Z,101678.44
2023-04-15T13:21:32.200Z,101683.66
2023-04-15T13:23:59.315Z,101680.63
2023-04-15T13:26:25.793Z,101677.50
2023-04-15T13:28:52.144Z,101677.03
2023-04-15T13:31:18.557Z,101690.16
2023-04-15T13:33:45.106Z,101690.66
2023-04-15T13:36:11.531Z,101697.50
2023-04-15T13:38:37.937Z,101704.72
2023-04-15T13:41:04.403Z,101700.88
2023-04-15T13:43:31.719Z,101697.72
2023-04-15T13:45:58.249Z,101705.53
2023-04-15T13:48:24.792Z,101706.47
2023-04-15T13:50:51.152Z,101717.69
2023-04-15T13:53:17.658Z,101719.81
2023-04-15T13:55:44.222Z,101715.97
2023-04-15T13:58:11.324Z,101722.63
2023-04-15T14:00:37.793Z,101727.13
2023-04-15T14:03:04.751Z,101729.03
2023-04-15T14:05:32.316Z,101723.81
2023-04-15T14:07:59.559Z,101726.03
2023-04-15T14:10:25.984Z,101730.41
2023-04-15T14:12:52.355Z,101738.25
2023-04-15T14:15:19.206Z,101744.72
2023-04-15T14:17:45.904Z,101743.78
2023-04-15T14:20:13.538Z,101752.91
2023-04-15T14:22:41.093Z,101755.66
2023-04-15T14:25:07.890Z,101757.94
2023-04-15T14:27:34.384Z,101765.81
2023-04-15T14:30:00.899Z,101769.16
2023-04-15T14:32:27.411Z,101781.16
2023-04-15T14:34:53.834Z,101785.81
2023-04-15T14:37:20.448Z,101784.69
2023-04-15T14:39:46.838Z,101787.38
2023-04-15T14:42:13.188Z,101786.81
2023-04-15T14:44:39.639Z,101790.94
2023-04-15T14:47:06.047Z,101797.84
2023-04-15T14:49:32.492Z,101788.19
2023-04-15T14:51:58.907Z,101797.31
2023-04-15T14:54:25.553Z,101803.22
2023-04-15T14:56:52.164Z,101803.31
2023-04-15T14:59:18.638Z,101813.91
2023-04-15T15:01:45.411Z,101823.50
2023-04-15T15:04:12.933Z,101829.63
2023-04-15T15:06:40.116Z,101830.25
2023-04-15T15:09:06.863Z,101829.19
2023-04-15T15:11:33.560Z,101830.00
2023-04-15T15:14:00.124Z,101830.50
2023-04-15T15:16:28.292Z,101827.19
2023-04-15T15:18:55.064Z,101830.50
2023-04-15T15:21:21.517Z,101837.63
2023-04-15T15:23:48.481Z,101838.56
2023-04-15T15:26:15.356Z,101849.31
2023-04-15T15:28:42.222Z,101850.16
2023-04-15T15:31:08.789Z,101854.72
2023-04-15T15:33:35.297Z,101852.91
2023-04-15T15:36:02.119Z,101860.41
2023-04-15T15:38:28.510Z,101847.59
2023-04-15T15:40:54.975Z,101857.47
2023-04-15T15:43:21.356Z,101854.44
2023-04-15T15:45:51.473Z,101866.06
2023-04-15T15:48:18.468Z,101867.41
2023-04-15T15:50:45.448Z,101861.28
2023-04-15T15:53:12.349Z,101865.31
2023-04-15T15:55:38.778Z,101875.69
2023-04-15T15:58:05.163Z,101875.91
2023-04-15T16:00:31.663Z,101867.53
2023-04-15T16:05:27.557Z,101878.22
2023-04-15T16:07:54.010Z,101885.94
2023-04-15T16:10:20.524Z,101889.19
2023-04-15T16:12:47.036Z,101894.69
2023-04-15T16:15:13.712Z,101889.63
2023-04-15T16:17:40.327Z,101900.28
2023-04-15T16:20:07.415Z,101911.69
2023-04-15T16:22:37.188Z,101905.91
2023-04-15T16:25:03.868Z,101902.78
2023-04-15T16:27:30.293Z,101905.44
2023-04-15T16:29:56.769Z,101914.97
2023-04-15T16:32:23.274Z,101908.06
2023-04-15T16:34:49.748Z,101920.31
2023-04-15T16:37:16.317Z,101931.53
2023-04-15T16:39:42.816Z,101939.56
2023-04-15T16:42:10.083Z,101935.16
2023-04-15T16:44:36.546Z,101936.97
2023-04-15T16:47:03.087Z,101934.50
2023-04-15T16:49:29.840Z,101940.47
2023-04-15T16:51:57.062Z,101944.03
2023-04-15T16:54:23.585Z,101938.00
2023-04-15T16:56:50.011Z,101954.28
2023-04-15T16:59:16.427Z,101950.06
2023-04-15T17:01:42.926Z,101949.41
2023-04-15T17:04:09.469Z,101943.53
2023-04-15T17:06:36.195Z,101956.59
2023-04-15T17:09:02.730Z,101954.13
2023-04-15T17:11:29.214Z,101952.22
2023-04-15T17:13:55.714Z,101959.16
2023-04-15T17:16:22.201Z,101956.56
2023-04-15T17:18:50.329Z,101960.97
2023-04-15T17:21:17.453Z,101966.19
2023-04-15T17:23:43.926Z,101973.97
2023-04-15T17:26:10.670Z,101978.44
2023-04-15T17:28:37.155Z,101979.38
2023-04-15T17:31:04.343Z,101969.75
2023-04-15T17:33:57.516Z,101984.59
2023-04-15T17:36:17.266Z,101978.63
2023-04-15T17:38:43.673Z,101969.06
2023-04-15T17:41:10.082Z,101970.84
2023-04-15T17:43:36.520Z,101979.53
2023-04-15T17:46:03.066Z,101980.22
2023-04-15T17:48:29.543Z,101989.78
2023-04-15T17:50:55.959Z,101990.66
2023-04-15T17:53:22.328Z,102004.69
2023-04-15T17:55:50.239Z,102000.34
2023-04-15T17:58:16.660Z,102008.28
2023-04-15T18:00:43.086Z,102009.94
2023-04-15T18:03:09.663Z,102005.59
2023-04-15T18:05:36.304Z,102013.34
2023-04-15T18:08:02.753Z,102013.31
2023-04-15T18:10:29.352Z,102023.75
2023-04-15T18:12:55.945Z,102013.28
2023-04-15T18:15:22.374Z,102015.00
2023-04-15T18:17:48.800Z,102030.59
2023-04-15T18:20:15.539Z,102029.03
2023-04-15T18:22:42.793Z,102027.41
2023-04-15T18:25:09.479Z,102030.00
2023-04-15T18:27:38.937Z,102026.59
2023-04-15T18:30:08.031Z,102036.22
2023-04-15T18:32:34.604Z,102040.50
2023-04-15T18:35:01.436Z,102038.81
2023-04-15T18:37:30.894Z,102044.78
2023-04-15T18:39:58.220Z,102044.88
2023-04-15T18:42:25.582Z,102045.75
2023-04-15T18:44:52.968Z,102050.09
2023-04-15T18:47:19.670Z,102049.19
2023-04-15T18:49:46.158Z,102056.34
2023-04-15T18:52:12.639Z,102054.66
2023-04-15T18:54:39.056Z,102065.19
2023-04-15T18:57:06.412Z,102057.56
2023-04-15T18:59:33.633Z,102065.44
2023-04-15T19:02:01.101Z,102072.34
2023-04-15T19:04:30.593Z,102074.91
2023-04-15T19:06:57.280Z,102084.47
2023-04-15T19:09:23.685Z,102084.53
2023-04-15T19:11:50.298Z,102088.03
2023-04-15T19:14:17.738Z,102078.59
2023-04-15T19:16:44.341Z,102079.44
2023-04-15T19:19:14.310Z,102091.59
2023-04-15T19:21:41.217Z,102083.81
2023-04-15T19:24:07.646Z,102084.72
2023-04-15T19:26:34.328Z,102082.97
2023-04-15T19:29:00.967Z,102088.03
2023-04-15T19:31:27.334Z,102094.06
2023-04-15T19:33:53.729Z,102096.69
2023-04-15T19:36:20.274Z,102094.09
2023-04-15T19:38:46.657Z,102105.44
2023-04-15T19:41:13.068Z,102103.84
2023-04-15T19:43:39.499Z,102105.50
2023-04-15T19:46:06.995Z,102101.16
2023-04-15T19:48:33.493Z,102102.91
2023-04-15T19:51:00.562Z,102111.53
2023-04-15T19:53:26.965Z,102109.78
2023-04-15T19:55:53.380Z,102109.78
2023-04-15T19:58:19.810Z,102115.81
2023-04-15T20:00:46.303Z,102115.00
2023-04-15T20:03:12.873Z,102117.63
2023-04-15T20:05:39.337Z,102111.63
2023-04-15T20:08:05.804Z,102116.81
2023-04-15T20:10:32.259Z,102117.63
2023-04-15T20:12:58.722Z,102121.06
2023-04-15T20:15:25.206Z,102117.56
2023-04-15T20:17:51.703Z,102116.72
2023-04-15T20:20:18.508Z,102118.47
2023-04-15T20:22:45.013Z,102112.41
2023-04-15T20:25:11.470Z,102113.28
2023-04-15T20:27:37.866Z,102117.63
2023-04-15T20:30:04.954Z,102113.31
2023-04-15T20:32:36.005Z,102123.59
2023-04-15T20:35:04.246Z,102126.16
2023-04-15T20:37:33.312Z,102133.09
2023-04-15T20:40:01.009Z,102124.38
2023-04-15T20:42:27.474Z,102120.03
2023-04-15T20:44:53.869Z,102123.56
2023-04-15T20:47:20.405Z,102121.06
2023-04-15T20:49:47.361Z,102126.28
2023-04-15T20:52:13.845Z,102127.00
2023-04-15T20:54:40.322Z,102127.09
2023-04-15T20:57:06.791Z,102126.28
2023-04-15T20:59:34.811Z,102126.28
2023-04-15T21:02:01.776Z,102132.28
2023-04-15T21:04:28.289Z,102131.47
2023-04-15T21:06:54.787Z,102133.16
2023-04-15T21:09:21.188Z,102136.56
2023-04-15T21:14:18.158Z,102143.47
2023-04-15T21:16:44.685Z,102138.19
2023-04-15T21:19:11.214Z,102140.78
2023-04-15T21:21:37.692Z,102145.06
2023-04-15T21:24:04.247Z,102146.03
2023-04-15T21:26:30.703Z,102146.09
2023-04-15T21:28:57.104Z,102146.03
2023-04-15T21:31:23.571Z,102146.94
2023-04-15T21:33:50.152Z,102152.31
2023-04-15T21:36:16.581Z,102148.81
2023-04-15T21:38:42.954Z,102149.66
2023-04-15T21:41:10.234Z,102147.84
2023-04-15T21:43:37.056Z,102144.41
2023-04-15T21:46:23.090Z,102149.00
2023-04-15T21:48:50.687Z,102145.53
2023-04-15T21:51:17.182Z,102148.97
2023-04-15T21:53:43.643Z,102149.91
2023-04-15T21:56:10.233Z,102157.66
2023-04-15T21:58:36.710Z,102161.09
2023-04-15T22:01:04.541Z,102167.91
2023-04-15T22:03:34.047Z,102162.72
2023-04-15T22:06:02.318Z,102175.63
2023-04-15T22:08:29.028Z,102173.91
2023-04-15T22:10:55.530Z,102177.44
2023-04-15T22:13:21.922Z,102180.03
2023-04-15T22:15:48.298Z,102171.44
2023-04-15T22:18:14.861Z,102176.63
2023-04-15T22:20:41.469Z,102171.47
2023-04-15T22:23:08.886Z,102167.13
2023-04-15T22:25:37.154Z,102173.91
2023-04-15T22:28:08.221Z,102171.34
2023-04-15T22:30:41.838Z,102186.09
2023-04-15T22:33:09.681Z,102176.63
2023-04-15T22:35:37.294Z,102179.09
2023-04-15T22:38:04.741Z,102185.97
2023-04-15T22:40:31.272Z,102183.38
2023-04-15T22:42:57.690Z,102189.38
2023-04-15T22:45:24.111Z,102184.16
2023-04-15T22:47:50.598Z,102191.88
2023-04-15T22:50:17.140Z,102185.72
2023-04-15T22:52:46.048Z,102185.75
2023-04-15T22:55:13.115Z,102192.72
2023-04-15T22:57:39.577Z,102185.75
2023-04-15T23:00:07.374Z,102195.25
2023-04-15T23:02:34.750Z,102192.63
2023-04-15T23:05:01.577Z,102202.97
2023-04-15T23:07:32.635Z,102209.84
2023-04-15T23:10:01.009Z,102202.00
2023-04-15T23:12:27.919Z,102212.38
2023-04-15T23:14:54.303Z,102209.81
2023-04-15T23:17:20.722Z,102211.69
2023-04-15T23:19:47.141Z,102208.16
2023-04-15T23:22:13.688Z,102216.88
2023-04-15T23:24:40.082Z,102219.50
2023-04-15T23:27:06.495Z,102220.41
2023-04-15T23:29:33.012Z,102219.56
2023-04-15T23:31:59.478Z,102217.84
2023-04-15T23:34:26.213Z,102220.41
2023-04-15T23:36:52.573Z,102217.91
2023-04-15T23:39:18.949Z,102218.75
2023-04-15T23:41:45.517Z,102215.31
2023-04-15T23:44:11.872Z,102225.72
2023-04-15T23:46:38.267Z,102218.84
2023-04-15T23:49:04.727Z,102224.09
2023-04-15T23:51:31.182Z,102224.94
2023-04-15T23:53:57.638Z,102227.50
2023-04-15T23:56:24.086Z,102232.66
2023-04-15T23:58:50.617Z,102234.25
